Time;durP1;ratioP1;P1;durP2;ratioP2;P2;SDS_P1;SDS_P2;PMS_P1;PMS_P2;Temp;Humidity;BMP_temperature;BMP_pressure;BME280_temperature;BME280_humidity;BME280_pressure;Samples;Min_cycle;Max_cycle;Signal;HPM_P1;HPM_P2
2024/02/21 00:01:16;;;;;;;18.83;3.28;;;;;;;13.20;77.21;102216.53;5049187;28;20402;-50
2024/02/21 00:03:42;;;;;;;19.77;3.55;;;;;;;13.36;77.43;102219.56;5048552;28;20033;-47
2024/02/21 00:06:07;;;;;;;15.85;3.28;;;;;;;13.59;76.05;102225.34;5050097;28;20040;-48
2024/02/21 00:08:32;;;;;;;18.58;2.90;;;;;;;13.45;76.50;102197.94;5048186;28;20127;-46
2024/02/21 00:10:58;;;;;;;16.40;3.20;;;;;;;13.40;76.77;102196.94;5048572;28;20056;-48
2024/02/21 00:13:24;;;;;;;15.40;3.50;;;;;;;13.60;76.84;102218.38;5049404;28;20037;-47
2024/02/21 00:15:49;;;;;;;24.23;4.53;;;;;;;13.56;76.58;102213.88;5049098;28;20036;-46
2024/02/21 00:18:15;;;;;;;17.05;2.92;;;;;;;13.14;78.04;102212.06;5049798;28;20049;-46
2024/02/21 00:20:40;;;;;;;25.48;3.20;;;;;;;13.34;77.54;102209.91;5048769;28;20029;-44
2024/02/21 00:23:05;;;;;;;17.45;2.85;;;;;;;13.37;77.84;102199.50;5051016;28;20578;-46
2024/02/21 00:25:31;;;;;;;21.05;3.65;;;;;;;13.38;77.50;102201.25;5053502;28;20037;-48
2024/02/21 00:27:56;;;;;;;20.00;3.55;;;;;;;13.48;76.74;102216.34;5053462;28;20660;-47
2024/02/21 00:30:21;;;;;;;21.23;3.58;;;;;;;13.56;76.29;102224.38;5052740;28;20053;-48
2024/02/21 00:32:47;;;;;;;17.15;3.15;;;;;;;13.42;76.51;102217.94;5049096;28;20040;-46
2024/02/21 00:35:13;;;;;;;18.25;3.30;;;;;;;13.31;77.90;102229.03;5049564;28;20089;-46
2024/02/21 00:37:39;;;;;;;20.38;3.60;;;;;;;13.59;76.52;102224.47;5047938;28;20044;-50
2024/02/21 00:40:05;;;;;;;22.98;3.42;;;;;;;13.31;77.77;102217.69;5048781;28;20032;-47
2024/02/21 00:42:30;;;;;;;20.23;3.00;;;;;;;13.68;76.53;102211.53;5048893;28;20033;-46
2024/02/21 00:44:55;;;;;;;16.60;3.30;;;;;;;13.65;75.74;102216.72;5048648;28;20423;-45
2024/02/21 00:47:21;;;;;;;20.00;3.58;;;;;;;13.84;75.35;102215.41;5049211;28;20032;-47
2024/02/21 00:49:46;;;;;;;21.80;3.92;;;;;;;13.38;77.00;102215.25;5048121;28;20128;-47
2024/02/21 00:52:11;;;;;;;23.00;3.58;;;;;;;13.43;76.67;102209.22;5050150;28;20052;-46
2024/02/21 00:54:37;;;;;;;17.25;3.60;;;;;;;13.42;77.17;102205.72;5052257;28;20040;-46
2024/02/21 00:57:02;;;;;;;18.30;3.40;;;;;;;13.55;76.52;102196.41;5052571;28;20087;-47
2024/02/21 00:59:27;;;;;;;20.45;3.67;;;;;;;13.15;78.22;102200.72;5051586;28;20611;-49
2024/02/21 01:01:53;;;;;;;22.70;4.22;;;;;;;12.99;78.82;102202.03;5051673;28;20548;-48
2024/02/21 01:04:18;;;;;;;27.90;4.10;;;;;;;13.36;78.01;102190.75;5052742;28;20037;-48
2024/02/21 01:06:44;;;;;;;20.55;3.38;;;;;;;13.76;76.82;102175.91;5052164;28;20033;-51
2024/02/21 01:09:10;;;;;;;17.40;3.80;;;;;;;13.56;77.28;102183.34;5052568;28;20060;-46
2024/02/21 01:11:36;;;;;;;20.65;3.55;;;;;;;13.39;77.13;102180.34;5051829;28;20483;-47
2024/02/21 01:14:01;;;;;;;18.05;3.50;;;;;;;13.72;76.22;102177.56;5052291;28;20037;-48
2024/02/21 01:16:27;;;;;;;28.42;4.07;;;;;;;13.69;76.10;102174.91;5052591;28;20029;-48
2024/02/21 01:18:52;;;;;;;21.85;3.60;;;;;;;13.06;78.90;102189.09;5051819;28;20500;-46
2024/02/21 01:21:17;;;;;;;22.13;4.40;;;;;;;13.36;78.43;102166.28;5052091;28;20116;-48
2024/02/21 01:23:43;;;;;;;19.42;3.97;;;;;;;13.55;77.56;102164.94;5050378;28;20076;-48
2024/02/21 01:26:08;;;;;;;22.58;3.85;;;;;;;13.68;77.12;102167.00;5052296;28;20446;-46
2024/02/21 01:28:34;;;;;;;22.98;4.43;;;;;;;13.00;78.91;102166.28;5051844;28;20132;-49
2024/02/21 01:30:59;;;;;;;22.65;4.13;;;;;;;13.63;76.94;102151.19;5051377;28;20033;-47
2024/02/21 01:33:25;;;;;;;24.38;4.07;;;;;;;13.35;77.45;102152.34;5052276;28;20035;-52
2024/02/21 01:35:50;;;;;;;23.52;4.28;;;;;;;13.65;76.85;102143.34;5051756;28;20040;-46
2024/02/21 01:38:16;;;;;;;15.25;3.65;;;;;;;13.51;77.41;102150.91;5052149;28;20028;-48
2024/02/21 01:40:41;;;;;;;24.48;3.85;;;;;;;13.39;77.89;102145.41;5050725;28;20580;-48
2024/02/21 01:43:17;;;;;;;18.92;3.92;;;;;;;13.43;77.52;102144.63;5051749;28;20120;-46
2024/02/21 01:45:42;;;;;;;26.05;4.68;;;;;;;13.21;78.08;102147.63;5051471;28;20037;-47
2024/02/21 01:48:07;;;;;;;16.38;3.80;;;;;;;13.32;78.29;102154.88;5051895;28;20122;-48
2024/02/21 01:50:33;;;;;;;23.58;4.15;;;;;;;13.25;78.99;102157.31;5051163;28;20124;-47
2024/02/21 01:52:59;;;;;;;24.45;4.22;;;;;;;13.51;77.60;102152.66;5051347;28;20037;-45
2024/02/21 01:55:24;;;;;;;23.83;4.15;;;;;;;13.73;76.35;102134.78;5051909;28;20638;-47
2024/02/21 01:57:50;;;;;;;25.30;3.97;;;;;;;13.26;78.04;102128.53;5051640;28;20060;-50
2024/02/21 02:00:16;;;;;;;27.65;4.43;;;;;;;13.30;78.05;102122.50;5051100;28;20037;-46
2024/02/21 02:02:42;;;;;;;22.27;3.95;;;;;;;13.45;77.71;102129.81;5050721;28;20037;-46
2024/02/21 02:05:08;;;;;;;17.75;4.10;;;;;;;13.37;78.12;102126.16;5051851;28;20033;-46
2024/02/21 02:07:33;;;;;;;24.27;4.30;;;;;;;13.65;76.89;102122.41;5051487;28;20566;-47
2024/02/21 02:09:59;;;;;;;18.83;3.67;;;;;;;13.81;75.88;102133.22;5048936;28;20579;-48
2024/02/21 02:12:24;;;;;;;19.98;4.20;;;;;;;13.60;76.96;102129.28;5051947;28;20029;-44
2024/02/21 02:15:04;;;;;;;20.30;4.70;;;;;;;13.22;78.20;102116.25;5051168;28;20495;-50
2024/02/21 02:17:30;;;;;;;20.00;4.07;;;;;;;13.11;78.02;102102.00;5051632;28;20033;-47
2024/02/21 02:19:55;;;;;;;20.63;4.07;;;;;;;13.71;76.54;102109.41;5049185;28;20040;-50
2024/02/21 02:22:25;;;;;;;20.20;4.18;;;;;;;13.61;76.58;102102.19;5051498;28;20029;-46
2024/02/21 02:24:51;;;;;;;21.13;3.78;;;;;;;13.81;75.29;102106.13;5051094;28;20469;-45
2024/02/21 02:27:16;;;;;;;22.15;4.70;;;;;;;13.74;75.27;102104.22;5051627;28;20067;-48
2024/02/21 02:29:41;;;;;;;20.27;4.28;;;;;;;13.42;76.76;102092.22;5053839;28;20115;-47
2024/02/21 02:32:07;;;;;;;23.73;4.55;;;;;;;13.28;77.05;102100.66;5051813;28;20056;-44
2024/02/21 02:34:32;;;;;;;19.38;4.10;;;;;;;13.37;77.39;102098.22;5051269;28;20048;-51
2024/02/21 02:36:57;;;;;;;18.33;4.20;;;;;;;13.50;76.90;102101.09;5051070;28;20029;-48
2024/02/21 02:39:23;;;;;;;27.13;4.45;;;;;;;13.33;77.22;102096.41;5050858;28;20037;-48
2024/02/21 02:41:48;;;;;;;24.50;4.35;;;;;;;13.73;76.13;102087.59;5048721;28;20033;-45
2024/02/21 02:44:13;;;;;;;21.30;4.90;;;;;;;13.61;76.04;102086.47;5050827;28;20029;-47
2024/02/21 02:46:42;;;;;;;13.82;3.88;;;;;;;13.54;76.00;102092.47;5049978;28;20029;-46
2024/02/21 02:49:07;;;;;;;23.80;4.97;;;;;;;13.25;77.37;102084.84;5050942;28;20039;-46
2024/02/21 02:51:32;;;;;;;19.77;4.90;;;;;;;13.58;76.28;102075.94;5050374;28;20437;-46
2024/02/21 02:53:58;;;;;;;20.08;4.47;;;;;;;13.27;77.58;102075.31;5049863;28;20491;-46
2024/02/21 02:56:23;;;;;;;12.45;4.22;;;;;;;13.55;76.24;102063.66;5050674;28;20032;-45
2024/02/21 02:58:48;;;;;;;17.98;4.60;;;;;;;13.28;76.97;102066.59;5049962;28;20028;-52
2024/02/21 03:01:14;;;;;;;20.65;4.63;;;;;;;13.30;77.28;102064.00;5049971;28;20033;-47
2024/02/21 03:03:40;;;;;;;19.77;4.95;;;;;;;13.28;77.43;102061.38;5050348;28;20052;-47
2024/02/21 03:06:05;;;;;;;15.95;4.60;;;;;;;13.55;76.42;102052.28;5050596;28;20403;-47
2024/02/21 03:08:31;;;;;;;15.80;4.50;;;;;;;13.48;76.35;102046.03;5050067;28;20033;-47
2024/02/21 03:10:56;;;;;;;18.15;4.57;;;;;;;13.43;75.86;102044.19;5049345;28;20025;-45
2024/02/21 03:13:21;;;;;;;22.10;4.40;;;;;;;13.51;76.31;102048.75;5049538;28;20116;-48
2024/02/21 03:15:46;;;;;;;17.73;4.28;;;;;;;13.50;76.09;102040.84;5049539;28;20052;-46
2024/02/21 03:18:12;;;;;;;20.10;4.28;;;;;;;13.71;75.33;102015.94;5065554;28;20048;-48
2024/02/21 03:20:37;;;;;;;11.23;4.05;;;;;;;13.92;74.54;102019.81;5049129;28;20048;-47
2024/02/21 03:23:02;;;;;;;17.95;4.57;;;;;;;13.71;75.18;102026.44;5049901;28;20033;-47
2024/02/21 03:25:28;;;;;;;20.77;4.63;;;;;;;13.45;76.41;102017.19;5050071;28;20063;-51
2024/02/21 03:27:53;;;;;;;19.80;4.55;;;;;;;13.56;75.22;102018.25;5049634;28;20094;-49
2024/02/21 03:30:18;;;;;;;20.30;4.85;;;;;;;13.65;75.81;102021.09;5049488;28;20056;-46
2024/02/21 03:32:44;;;;;;;15.98;4.28;;;;;;;13.61;75.98;102019.22;5049345;28;20678;-48
2024/02/21 03:35:09;;;;;;;21.98;4.60;;;;;;;13.54;75.10;102019.97;5050056;28;20040;-47
2024/02/21 03:37:35;;;;;;;19.67;4.90;;;;;;;13.69;75.75;102003.66;5049400;28;20037;-45
2024/02/21 03:40:00;;;;;;;17.17;4.47;;;;;;;13.42;76.18;101996.16;5049376;28;20128;-47
2024/02/21 03:42:25;;;;;;;21.42;4.75;;;;;;;13.79;75.09;102003.84;5049930;28;20626;-48
2024/02/21 03:44:50;;;;;;;16.83;4.80;;;;;;;13.45;76.36;102005.81;5049280;28;20048;-49
2024/02/21 03:47:16;;;;;;;20.67;5.30;;;;;;;13.63;75.39;102007.06;5049799;28;20114;-48
2024/02/21 03:49:42;;;;;;;23.00;5.20;;;;;;;13.49;75.45;102011.13;5048705;28;20033;-46
2024/02/21 03:52:08;;;;;;;19.27;5.28;;;;;;;13.17;76.91;102007.00;5049387;28;20025;-47
2024/02/21 03:54:33;;;;;;;15.20;5.10;;;;;;;13.48;75.80;102001.50;5049508;28;20048;-47
2024/02/21 03:56:58;;;;;;;17.48;5.35;;;;;;;13.95;74.52;101989.28;5049266;28;20025;-47
2024/02/21 03:59:24;;;;;;;17.80;5.13;;;;;;;14.18;73.13;101981.81;5049794;28;20694;-45
2024/02/21 04:01:53;;;;;;;19.02;5.47;;;;;;;14.10;73.09;101989.53;5049115;28;20543;-49
2024/02/21 04:04:18;;;;;;;19.80;4.75;;;;;;;13.86;74.08;101989.13;5049977;28;20033;-45
2024/02/21 04:06:48;;;;;;;17.63;5.18;;;;;;;13.87;74.16;101982.13;5049219;28;20078;-47
2024/02/21 04:09:14;;;;;;;12.95;5.13;;;;;;;13.74;74.70;101999.38;5049209;28;20086;-50
2024/02/21 04:11:39;;;;;;;14.82;4.82;;;;;;;14.30;72.83;101996.84;5048699;28;20032;-45
2024/02/21 04:14:04;;;;;;;17.70;5.22;;;;;;;13.99;73.46;101995.47;5049113;28;20068;-47
2024/02/21 04:16:29;;;;;;;20.65;5.10;;;;;;;13.81;73.96;102004.78;5049336;28;20398;-50
2024/02/21 04:18:55;;;;;;;16.20;5.47;;;;;;;13.80;74.45;102002.13;5049216;28;20029;-53
2024/02/21 04:21:20;;;;;;;20.80;5.47;;;;;;;13.69;74.90;101994.06;5049462;28;20029;-49
2024/02/21 04:23:45;;;;;;;17.65;5.00;;;;;;;14.05;74.14;101991.22;5051418;28;20071;-48
2024/02/21 04:26:10;;;;;;;15.82;5.38;;;;;;;13.61;74.18;101990.41;5056303;28;20036;-47
2024/02/21 04:28:36;;;;;;;14.20;5.75;;;;;;;13.79;73.90;101984.63;5055056;28;20388;-45
2024/02/21 04:31:01;;;;;;;15.02;5.60;;;;;;;14.15;73.20;101984.34;5053780;28;20071;-46
2024/02/21 04:33:26;;;;;;;18.65;5.82;;;;;;;14.15;72.75;101971.25;5053201;28;20029;-45
2024/02/21 04:35:54;;;;;;;17.63;6.20;;;;;;;14.31;72.36;101975.00;5052979;28;20037;-46
2024/02/21 04:38:20;;;;;;;17.77;6.10;;;;;;;14.26;72.21;101968.81;5053501;28;20036;-45
2024/02/21 04:40:45;;;;;;;19.88;5.45;;;;;;;14.12;72.49;101959.00;5052196;28;20033;-46
2024/02/21 04:43:10;;;;;;;13.30;5.68;;;;;;;14.28;72.06;101943.47;5053006;28;20055;-45
2024/02/21 04:45:35;;;;;;;19.10;6.05;;;;;;;14.00;73.41;101956.16;5052589;28;20377;-45
2024/02/21 04:48:01;;;;;;;18.40;6.32;;;;;;;13.72;73.81;101961.81;5053023;28;20041;-50
2024/02/21 04:50:27;;;;;;;17.38;6.68;;;;;;;13.70;74.37;101956.53;5052428;28;20056;-46
2024/02/21 04:52:52;;;;;;;15.63;6.72;;;;;;;13.63;74.11;101957.25;5052402;28;20060;-49
2024/02/21 04:55:17;;;;;;;18.98;7.00;;;;;;;13.56;74.76;101951.88;5052900;28;20152;-46
2024/02/21 04:57:43;;;;;;;19.35;6.97;;;;;;;13.40;74.60;101950.72;5052143;28;20075;-46
2024/02/21 05:00:09;;;;;;;17.55;6.60;;;;;;;13.72;73.97;101936.44;5052195;28;20059;-47
2024/02/21 05:02:34;;;;;;;15.60;6.78;;;;;;;13.89;73.77;101935.88;5051965;28;20064;-47
2024/02/21 05:05:00;;;;;;;16.63;7.07;;;;;;;13.81;73.84;101931.38;5052858;28;20029;-45
2024/02/21 05:07:25;;;;;;;14.55;6.55;;;;;;;13.92;72.77;101915.81;5052929;28;20032;-48
2024/02/21 05:09:50;;;;;;;20.65;7.15;;;;;;;13.89;73.21;101907.03;5050441;28;20039;-47
2024/02/21 05:12:16;;;;;;;16.95;6.97;;;;;;;13.98;72.82;101915.03;5052685;28;20036;-47
2024/02/21 05:14:41;;;;;;;14.80;6.88;;;;;;;13.89;73.75;101910.53;5050693;28;20041;-47
2024/02/21 05:17:06;;;;;;;17.55;7.55;;;;;;;13.81;73.36;101910.41;5052573;28;20040;-46
2024/02/21 05:19:32;;;;;;;20.77;8.13;;;;;;;14.12;72.12;101909.16;5053804;28;20402;-47
2024/02/21 05:21:59;;;;;;;19.23;7.57;;;;;;;14.04;72.64;101899.41;5053218;28;20040;-46
2024/02/21 05:24:24;;;;;;;14.50;7.88;;;;;;;14.04;72.50;101892.41;5053250;28;20029;-44
2024/02/21 05:26:49;;;;;;;20.70;7.85;;;;;;;13.80;72.31;101884.16;5052820;28;20580;-46
2024/02/21 05:29:14;;;;;;;18.98;7.80;;;;;;;13.98;72.65;101884.47;5052583;28;20033;-48
2024/02/21 05:31:58;;;;;;;21.80;8.07;;;;;;;14.10;72.09;101882.03;5051173;28;20663;-47
2024/02/21 05:34:23;;;;;;;16.55;7.70;;;;;;;14.01;72.08;101878.41;5052580;28;20700;-45
2024/02/21 05:36:52;;;;;;;17.95;7.68;;;;;;;14.09;71.71;101875.00;5051580;28;20128;-46
2024/02/21 05:39:18;;;;;;;14.02;7.43;;;;;;;14.01;72.23;101871.41;5052435;28;20052;-46
2024/02/21 05:41:43;;;;;;;14.13;7.68;;;;;;;14.05;71.92;101865.34;5051655;28;20529;-45
2024/02/21 05:44:08;;;;;;;17.27;8.13;;;;;;;13.75;73.18;101864.88;5052138;28;20569;-46
2024/02/21 05:46:34;;;;;;;18.35;7.93;;;;;;;14.04;72.29;101860.06;5052506;28;20392;-47
2024/02/21 05:49:00;;;;;;;19.05;8.15;;;;;;;13.58;73.25;101859.38;5051831;28;20256;-46
2024/02/21 05:51:25;;;;;;;18.77;8.60;;;;;;;13.76;72.99;101851.81;5051400;28;20510;-47
2024/02/21 05:53:50;;;;;;;16.98;8.60;;;;;;;13.51;73.80;101844.38;5051507;28;20132;-46
2024/02/21 05:56:17;;;;;;;18.77;9.38;;;;;;;13.74;72.85;101843.03;5052263;28;20060;-49
2024/02/21 05:58:42;;;;;;;20.65;9.68;;;;;;;13.55;73.35;101843.56;5051247;28;20032;-45
2024/02/21 06:01:07;;;;;;;24.35;9.95;;;;;;;13.72;72.81;101842.09;5051424;28;20033;-45
2024/02/21 06:03:33;;;;;;;19.88;10.05;;;;;;;13.91;72.86;101843.28;5051367;28;20037;-46
2024/02/21 06:06:00;;;;;;;20.35;10.85;;;;;;;13.65;73.42;101834.16;5049665;28;20036;-46
2024/02/21 06:08:25;;;;;;;22.55;11.77;;;;;;;13.71;72.86;101837.75;5051462;28;20059;-46
2024/02/21 06:10:54;;;;;;;20.95;11.27;;;;;;;13.82;73.01;101836.16;5050318;28;20056;-47
2024/02/21 06:13:26;;;;;;;19.90;10.70;;;;;;;14.02;71.96;101833.84;5051092;28;20102;-46
2024/02/21 06:15:51;;;;;;;21.77;11.52;;;;;;;13.75;72.36;101844.78;5050866;28;20120;-47
2024/02/21 06:18:17;;;;;;;23.77;11.48;;;;;;;13.40;73.88;101836.34;5050194;28;20112;-49
2024/02/21 06:20:43;;;;;;;25.42;11.95;;;;;;;13.10;75.68;101856.72;5050236;28;20483;-49
2024/02/21 06:23:09;;;;;;;24.48;12.77;;;;;;;13.25;74.94;101854.41;5051670;28;20037;-46
2024/02/21 06:25:34;;;;;;;24.73;12.60;;;;;;;13.27;74.90;101857.94;5049499;28;20040;-49
2024/02/21 06:27:59;;;;;;;23.25;13.07;;;;;;;13.74;73.73;101850.88;5051124;28;20036;-49
2024/02/21 06:30:25;;;;;;;25.02;13.40;;;;;;;13.67;72.84;101853.38;5050412;28;20057;-46
2024/02/21 06:32:50;;;;;;;26.90;13.65;;;;;;;13.51;73.75;101849.63;5050494;28;20029;-48
2024/02/21 06:35:16;;;;;;;22.27;13.18;;;;;;;13.55;73.79;101840.94;5049481;28;20059;-46
2024/02/21 06:37:42;;;;;;;27.30;13.07;;;;;;;13.76;72.97;101840.44;5050420;28;20025;-49
2024/02/21 06:40:07;;;;;;;28.35;13.38;;;;;;;13.70;73.44;101840.34;5050294;28;20095;-48
2024/02/21 06:42:33;;;;;;;26.13;13.75;;;;;;;13.63;73.54;101828.88;5050755;28;20047;-48
2024/02/21 06:44:58;;;;;;;24.30;12.43;;;;;;;13.43;74.61;101824.16;5050216;28;20143;-49
2024/02/21 06:47:23;;;;;;;25.98;12.73;;;;;;;13.64;73.82;101828.03;5050780;28;20052;-49
2024/02/21 06:49:50;;;;;;;28.45;13.00;;;;;;;13.32;74.07;101822.25;5048604;28;20549;-47
2024/02/21 06:52:17;;;;;;;25.80;12.05;;;;;;;13.26;74.69;101816.00;5050639;28;20025;-49
2024/02/21 06:54:42;;;;;;;26.40;12.15;;;;;;;13.19;75.42;101812.41;5049542;28;20048;-47
2024/02/21 06:57:08;;;;;;;21.33;11.63;;;;;;;13.60;73.22;101815.72;5050413;28;20037;-51
2024/02/21 06:59:33;;;;;;;25.95;12.18;;;;;;;13.59;73.88;101805.22;5050413;28;20025;-46
2024/02/21 07:02:00;;;;;;;26.17;12.32;;;;;;;13.69;73.69;101799.25;5049523;28;20085;-47
2024/02/21 07:04:26;;;;;;;24.08;12.10;;;;;;;13.97;72.53;101793.56;5050280;28;20116;-47
2024/02/21 07:06:52;;;;;;;24.63;12.15;;;;;;;13.68;73.41;101807.97;5050162;28;20040;-44
2024/02/21 07:09:24;;;;;;;22.50;12.20;;;;;;;13.75;72.89;101800.25;5097042;27;20405;-48
2024/02/21 07:11:49;;;;;;;26.02;12.50;;;;;;;13.56;73.78;101792.06;5086076;28;20036;-49
2024/02/21 07:14:18;;;;;;;23.73;11.90;;;;;;;13.51;74.05;101789.38;5086780;28;20035;-46
2024/02/21 07:16:43;;;;;;;25.77;12.43;;;;;;;13.54;73.56;101775.47;5086541;28;20106;-48
2024/02/21 07:19:08;;;;;;;25.83;11.60;;;;;;;13.43;73.43;101775.25;5087005;28;20028;-46
2024/02/21 07:21:34;;;;;;;25.00;11.95;;;;;;;13.23;73.84;101764.50;5086555;28;20051;-49
2024/02/21 07:23:59;;;;;;;24.45;11.70;;;;;;;13.85;72.35;101763.66;5066273;28;20099;-45
2024/02/21 07:26:24;;;;;;;27.35;11.55;;;;;;;13.66;73.00;101765.16;5066705;28;20041;-46
2024/02/21 07:28:50;;;;;;;23.20;10.85;;;;;;;13.94;72.18;101758.56;5066004;28;20025;-48
2024/02/21 07:31:15;;;;;;;23.95;10.73;;;;;;;13.92;72.18;101758.53;5064982;28;20033;-45
2024/02/21 07:33:40;;;;;;;22.17;10.90;;;;;;;13.69;72.27;101755.59;5066076;28;20052;-45
2024/02/21 07:36:11;;;;;;;18.85;10.23;;;;;;;13.78;72.52;101744.38;5066725;28;20549;-48
2024/02/21 07:38:36;;;;;;;22.85;10.40;;;;;;;13.98;71.86;101749.88;5066021;28;20044;-47
2024/02/21 07:41:02;;;;;;;22.67;10.90;;;;;;;13.97;71.97;101755.97;5066521;28;20029;-48
2024/02/21 07:43:28;;;;;;;21.88;10.63;;;;;;;14.19;71.08;101751.03;5066853;28;20402;-46
2024/02/21 07:45:53;;;;;;;26.80;11.35;;;;;;;14.19;71.33;101737.94;5065651;28;20036;-45
2024/02/21 07:48:18;;;;;;;21.02;10.75;;;;;;;14.17;71.06;101729.16;5065413;28;20033;-50
2024/02/21 07:50:44;;;;;;;23.58;11.38;;;;;;;14.12;71.36;101724.72;5065249;28;20043;-48
2024/02/21 07:53:09;;;;;;;21.58;11.13;;;;;;;14.19;71.07;101723.94;5066286;28;20071;-46
2024/02/21 07:55:35;;;;;;;26.15;12.00;;;;;;;14.24;70.99;101717.00;5065800;28;20090;-49
2024/02/21 07:58:00;;;;;;;23.00;12.07;;;;;;;14.15;70.75;101714.25;5066153;28;20029;-48
2024/02/21 08:00:25;;;;;;;25.38;12.27;;;;;;;14.09;71.61;101716.78;5065540;28;20042;-47
2024/02/21 08:02:51;;;;;;;22.42;11.50;;;;;;;14.18;70.68;101719.53;5065354;28;20044;-46
2024/02/21 08:05:16;;;;;;;25.95;12.20;;;;;;;14.28;71.06;101712.66;5065819;28;20156;-47
2024/02/21 08:07:42;;;;;;;29.40;13.10;;;;;;;14.18;71.10;101709.94;5065131;28;20082;-46
2024/02/21 08:10:10;;;;;;;24.52;12.32;;;;;;;14.27;70.90;101714.44;5065477;28;20036;-44
2024/02/21 08:12:36;;;;;;;26.70;12.45;;;;;;;14.37;70.39;101704.91;5065233;28;20029;-50
2024/02/21 08:15:03;;;;;;;23.75;11.93;;;;;;;14.36;70.55;101703.13;5065871;28;20402;-47
2024/02/21 08:17:29;;;;;;;25.40;12.95;;;;;;;14.17;70.86;101699.44;5065547;28;20029;-48
2024/02/21 08:19:54;;;;;;;24.95;11.82;;;;;;;14.09;70.63;101693.19;5056223;28;20858;-47
2024/02/21 08:22:19;;;;;;;26.70;12.35;;;;;;;14.08;71.30;101686.22;5055211;28;20498;-44
2024/02/21 08:24:45;;;;;;;28.13;13.60;;;;;;;13.87;71.53;101689.44;5053772;28;20060;-46
2024/02/21 08:27:10;;;;;;;25.10;12.60;;;;;;;14.14;71.08;101688.91;5054681;28;20029;-48
2024/02/21 08:29:36;;;;;;;25.45;12.85;;;;;;;14.05;71.07;101678.31;5051794;28;20064;-50
2024/02/21 08:32:01;;;;;;;32.70;13.32;;;;;;;14.16;70.88;101671.44;5052043;28;20167;-46
2024/02/21 08:34:28;;;;;;;27.13;13.38;;;;;;;14.31;70.06;101670.75;5052347;28;20052;-48
2024/02/21 08:36:54;;;;;;;29.63;12.90;;;;;;;14.04;70.68;101660.81;5051580;28;20033;-46
2024/02/21 08:39:19;;;;;;;27.30;12.60;;;;;;;13.84;71.54;101664.94;5052140;28;20025;-48
2024/02/21 08:41:44;;;;;;;25.80;12.13;;;;;;;14.29;70.78;101665.47;5051057;28;20674;-49
2024/02/21 08:44:10;;;;;;;24.55;11.90;;;;;;;14.20;70.48;101671.50;5052059;28;20107;-45
2024/02/21 08:46:38;;;;;;;27.35;12.60;;;;;;;13.67;71.96;101656.84;5051210;28;20033;-49
2024/02/21 08:49:03;;;;;;;23.15;12.00;;;;;;;13.90;71.85;101663.28;5051627;28;20025;-50
2024/02/21 08:51:29;;;;;;;27.15;12.65;;;;;;;13.99;71.72;101657.25;5051398;28;20071;-45
2024/02/21 08:53:55;;;;;;;24.65;12.18;;;;;;;13.65;71.73;101658.59;5051710;28;20402;-47
2024/02/21 08:56:20;;;;;;;29.73;12.98;;;;;;;14.08;70.82;101636.41;5052231;28;20083;-47
2024/02/21 08:58:45;;;;;;;27.95;13.52;;;;;;;13.47;72.84;101640.00;5051457;28;20454;-48
2024/02/21 09:01:10;;;;;;;28.58;13.48;;;;;;;14.10;71.06;101632.91;5051276;28;20446;-48
2024/02/21 09:03:39;;;;;;;28.65;13.95;;;;;;;14.26;70.87;101630.47;5051034;28;20037;-46
2024/02/21 09:06:05;;;;;;;26.23;14.45;;;;;;;14.14;70.33;101639.97;5097579;22;20075;-42
2024/02/21 09:08:32;;;;;;;29.98;14.70;;;;;;;14.26;70.24;101630.47;5050930;28;20046;-42
2024/02/21 09:10:57;;;;;;;27.73;14.73;;;;;;;14.24;69.83;101617.34;5049944;28;20025;-40
2024/02/21 09:13:23;;;;;;;29.25;14.43;;;;;;;14.61;69.28;101614.22;5051066;28;20124;-42
2024/02/21 09:15:49;;;;;;;29.40;14.63;;;;;;;14.74;68.78;101604.72;5038264;28;20033;-43
2024/02/21 09:18:15;;;;;;;26.55;14.55;;;;;;;14.26;69.92;101601.63;5031165;28;20095;-41
2024/02/21 09:20:40;;;;;;;29.35;13.57;;;;;;;14.70;68.82;101592.41;5029946;28;20037;-43
2024/02/21 09:23:06;;;;;;;23.02;13.40;;;;;;;14.63;68.51;101581.88;5030988;28;20044;-47
2024/02/21 09:25:31;;;;;;;24.13;13.57;;;;;;;14.74;68.07;101578.47;5030892;28;20025;-42
2024/02/21 09:27:58;;;;;;;26.88;13.30;;;;;;;14.73;67.66;101570.56;5030457;28;20042;-41
2024/02/21 09:30:23;;;;;;;25.30;12.98;;;;;;;14.78;67.85;101561.88;5029961;28;20037;-40
2024/02/21 09:32:49;;;;;;;24.58;13.00;;;;;;;14.70;68.18;101558.28;5029586;28;20407;-40
2024/02/21 09:35:14;;;;;;;21.40;12.38;;;;;;;14.86;67.73;101544.44;5030515;28;20536;-44
2024/02/21 09:37:40;;;;;;;22.20;12.15;;;;;;;14.80;67.78;101546.13;5030354;28;20033;-41
2024/02/21 09:40:06;;;;;;;22.27;11.93;;;;;;;14.67;67.65;101539.91;5029925;28;20507;-40
2024/02/21 09:42:41;;;;;;;21.70;11.88;;;;;;;14.93;67.03;101538.34;5030329;28;20037;-42
2024/02/21 09:45:23;;;;;;;25.42;11.82;;;;;;;14.77;67.59;101517.22;5050376;28;20029;-42
2024/02/21 09:47:54;;;;;;;22.73;11.90;;;;;;;14.99;66.95;101514.75;5049888;28;20029;-44
2024/02/21 09:50:21;;;;;;;21.33;11.23;;;;;;;15.01;66.74;101505.13;5049817;28;20116;-42
2024/02/21 09:52:48;;;;;;;21.67;11.27;;;;;;;14.87;66.71;101498.94;5049910;28;20033;-42
2024/02/21 09:55:15;;;;;;;18.95;10.63;;;;;;;14.97;66.45;101492.84;5050191;28;20040;-42
2024/02/21 09:57:40;;;;;;;19.67;11.00;;;;;;;14.63;66.45;101496.16;5049812;28;20029;-42
2024/02/21 10:00:09;;;;;;;19.10;10.55;;;;;;;14.59;67.44;101497.88;5049648;28;20112;-43
2024/02/21 10:02:35;;;;;;;16.13;10.15;;;;;;;15.01;66.42;101484.09;5049676;28;20036;-45
2024/02/21 10:05:00;;;;;;;20.83;10.63;;;;;;;14.72;66.67;101472.59;5050119;28;20396;-43
2024/02/21 10:07:25;;;;;;;22.77;9.93;;;;;;;14.93;66.03;101474.47;5050369;28;20048;-45
2024/02/21 10:10:02;;;;;;;16.02;9.68;;;;;;;14.33;67.72;101470.56;5049111;28;20049;-44
2024/02/21 10:12:27;;;;;;;20.67;10.55;;;;;;;14.75;66.49;101454.25;5050076;28;20040;-43
2024/02/21 10:15:03;;;;;;;17.58;10.20;;;;;;;14.40;67.08;101455.75;5049454;28;20048;-41
2024/02/21 10:17:28;;;;;;;21.88;10.05;;;;;;;14.53;66.98;101431.34;5049799;28;20116;-46
2024/02/21 10:19:54;;;;;;;17.83;10.18;;;;;;;15.06;65.43;101426.38;5048795;28;20448;-43
2024/02/21 10:22:20;;;;;;;18.10;10.40;;;;;;;14.98;65.54;101425.47;5050000;28;20036;-44
2024/02/21 10:24:46;;;;;;;20.30;10.85;;;;;;;14.78;65.61;101433.25;5049382;28;20043;-46
2024/02/21 10:27:11;;;;;;;18.10;11.35;;;;;;;14.67;66.51;101431.44;5049659;28;20466;-44
2024/02/21 10:29:38;;;;;;;19.77;11.85;;;;;;;14.72;66.62;101434.97;5048697;28;20041;-39
2024/02/21 10:32:11;;;;;;;18.95;11.40;;;;;;;14.70;66.38;101439.34;5049291;28;20499;-42
2024/02/21 10:34:38;;;;;;;18.45;10.55;;;;;;;15.00;65.49;101439.50;5049096;28;20041;-45
2024/02/21 10:37:10;;;;;;;15.70;9.85;;;;;;;14.56;65.91;101436.63;5032187;28;20029;-44
2024/02/21 10:39:39;;;;;;;18.13;10.85;;;;;;;14.59;66.28;101441.88;5049331;28;20102;-45
2024/02/21 10:42:06;;;;;;;15.75;9.70;;;;;;;14.48;67.21;101444.44;5050383;28;20037;-42
2024/02/21 10:44:33;;;;;;;17.55;9.73;;;;;;;14.20;67.61;101445.09;5050542;28;20033;-41
2024/02/21 10:46:58;;;;;;;16.55;9.05;;;;;;;14.41;67.10;101440.03;5053633;28;20064;-42
2024/02/21 10:49:26;;;;;;;18.10;9.57;;;;;;;14.44;66.73;101432.19;5053674;28;20041;-45
2024/02/21 10:51:57;;;;;;;15.73;9.05;;;;;;;14.57;67.15;101423.53;5048608;28;20063;-45
2024/02/21 10:54:39;;;;;;;16.95;9.00;;;;;;;14.01;68.07;101414.34;5031598;28;20041;-42
2024/02/21 10:57:06;;;;;;;15.52;9.30;;;;;;;14.04;67.97;101407.38;5048875;28;20025;-43
2024/02/21 10:59:33;;;;;;;17.15;9.23;;;;;;;14.58;67.20;101406.88;5049103;28;20048;-42
2024/02/21 11:01:59;;;;;;;20.73;9.73;;;;;;;14.48;66.65;101398.97;5048351;28;20033;-47
2024/02/21 11:04:26;;;;;;;15.32;10.23;;;;;;;14.46;67.42;101392.81;5049361;28;20041;-48
2024/02/21 11:06:52;;;;;;;16.98;10.50;;;;;;;14.26;68.10;101389.19;5049119;28;20566;-43
2024/02/21 11:09:17;;;;;;;16.25;10.43;;;;;;;14.39;67.52;101363.09;5049238;28;20128;-44